Bargersville, Indiana
Current Conditions -  °F | °C
As of 12:18 AM on Tuesday 27 Jan 2015 (Local Time) from KIND Reporting Station
Light Snow Light Snow  
Wind Chill: 19°   Ceiling: 1300
Heat Index: 25°   Visibility: 7mi
Dew Point: 23°   Wind: 5mph
Humidity: 92%   Direction: 220°SW
Pressure: 29.91"   Gusts: NA
Location:  39.52°N, 86.17°W
Report Text: KIND 270518Z 22004KT 7SM -SN BKN013 BKN029 OVC042 M04/M05 A2991 RMK AO2 P0000 T10391050
Loading
Personal Weather Stations






























Interactive Weather Map New forecast layout! Learn more

10-Day Weather Forecast

Advertisements
Track Severe Weather on mobile